Time;durP1;ratioP1;P1;durP2;ratioP2;P2;SDS_P1;SDS_P2;PMS_P1;PMS_P2;Temp;Humidity;BMP_temperature;BMP_pressure;BME280_temperature;BME280_humidity;BME280_pressure;Samples;Min_cycle;Max_cycle;Signal;HPM_P1;HPM_P2
2023/03/23 00:01:19;;;;;;;;;;;11.90;86.70;;;;;;5106948;28;19916;-81
2023/03/23 00:03:46;;;;;;;;;;;11.90;86.90;;;;;;5102399;28;19943;-82
2023/03/23 00:06:16;;;;;;;;;;;11.90;86.90;;;;;;5074189;28;19961;-81
2023/03/23 00:08:45;;;;;;;;;;;12.00;86.60;;;;;;5075335;28;19927;-81
2023/03/23 00:11:14;;;;;;;;;;;12.00;86.30;;;;;;5085386;28;19916;-80
2023/03/23 00:13:40;;;;;;;;;;;12.00;86.40;;;;;;5063435;28;19912;-80
2023/03/23 00:16:05;;;;;;;;;;;11.90;86.60;;;;;;5065617;28;19917;-80
2023/03/23 00:18:31;;;;;;;;;;;11.90;86.40;;;;;;5087848;28;20019;-81
2023/03/23 00:20:56;;;;;;;;;;;11.90;86.70;;;;;;5088076;28;19927;-80
2023/03/23 00:23:25;;;;;;;;;;;12.00;86.60;;;;;;5064150;28;19919;-80
2023/03/23 00:25:58;;;;;;;;;;;12.10;86.30;;;;;;5069888;28;19927;-81
2023/03/23 00:28:24;;;;;;;;;;;12.10;86.00;;;;;;5069954;28;20324;-80
2023/03/23 00:30:56;;;;;;;;;;;12.10;85.60;;;;;;5063433;28;20385;-80
2023/03/23 00:33:23;;;;;;;;;;;12.10;85.80;;;;;;5079597;28;19921;-81
2023/03/23 00:35:52;;;;;;;;;;;12.10;85.60;;;;;;5087246;28;19927;-80
2023/03/23 00:38:19;;;;;;;;;;;12.10;85.40;;;;;;5063706;28;19920;-81
2023/03/23 00:40:44;;;;;;;;;;;12.10;85.40;;;;;;5078322;28;19966;-80
2023/03/23 00:43:13;;;;;;;;;;;12.10;85.00;;;;;;5067001;28;21176;-80
2023/03/23 00:45:39;;;;;;;;;;;12.20;84.90;;;;;;5089947;28;20073;-80
2023/03/23 00:48:04;;;;;;;;;;;12.10;84.60;;;;;;5067335;28;20013;-81
2023/03/23 00:50:31;;;;;;;;;;;12.10;84.70;;;;;;5080805;28;19912;-80
2023/03/23 00:52:57;;;;;;;;;;;12.10;84.50;;;;;;5073050;28;20003;-80
2023/03/23 00:55:23;;;;;;;;;;;12.10;84.40;;;;;;5079687;28;19920;-80
2023/03/23 00:57:50;;;;;;;;;;;12.10;84.40;;;;;;5080251;28;19963;-80
2023/03/23 01:00:16;;;;;;;;;;;12.10;84.70;;;;;;5070760;28;20341;-81
2023/03/23 01:02:44;;;;;;;;;;;12.10;84.80;;;;;;5069807;28;19916;-80
2023/03/23 01:05:10;;;;;;;;;;;12.20;84.60;;;;;;5063562;28;20271;-81
2023/03/23 01:07:36;;;;;;;;;;;12.20;84.50;;;;;;5084762;28;19913;-80
2023/03/23 01:10:02;;;;;;;;;;;12.10;84.40;;;;;;5058968;28;19912;-81
2023/03/23 01:12:27;;;;;;;;;;;12.10;84.50;;;;;;5076570;28;19916;-81
2023/03/23 01:14:53;;;;;;;;;;;12.10;84.60;;;;;;5064024;28;19920;-80
2023/03/23 01:17:19;;;;;;;;;;;12.10;84.60;;;;;;5067033;28;19927;-80
2023/03/23 01:19:45;;;;;;;;;;;12.00;84.80;;;;;;5082480;28;19920;-80
2023/03/23 01:22:10;;;;;;;;;;;12.00;84.90;;;;;;5058687;28;19912;-80
2023/03/23 01:24:35;;;;;;;;;;;12.00;85.00;;;;;;5063170;28;20002;-81
2023/03/23 01:27:06;;;;;;;;;;;12.10;84.70;;;;;;5079367;28;19920;-80
2023/03/23 01:29:35;;;;;;;;;;;12.10;84.70;;;;;;5074600;28;19916;-80
2023/03/23 01:32:00;;;;;;;;;;;12.10;84.50;;;;;;5071351;28;19985;-80
2023/03/23 01:34:26;;;;;;;;;;;12.10;84.50;;;;;;5085649;28;19913;-81
2023/03/23 01:36:51;;;;;;;;;;;12.00;84.80;;;;;;5062265;28;19944;-80
2023/03/23 01:39:17;;;;;;;;;;;12.10;84.70;;;;;;5090880;28;19923;-80
2023/03/23 01:41:42;;;;;;;;;;;12.00;85.00;;;;;;5085179;28;20309;-81
2023/03/23 01:44:28;;;;;;;;;;;12.00;85.10;;;;;;5066886;28;19919;-80
2023/03/23 01:46:54;;;;;;;;;;;12.00;85.30;;;;;;5067774;28;19924;-80
2023/03/23 01:49:29;;;;;;;;;;;12.00;85.30;;;;;;5063027;28;19920;-80
2023/03/23 01:51:58;;;;;;;;;;;12.00;85.30;;;;;;5063697;28;19963;-80
2023/03/23 01:54:23;;;;;;;;;;;12.00;85.30;;;;;;5067108;28;19912;-80
2023/03/23 01:56:52;;;;;;;;;;;12.00;85.60;;;;;;5084353;28;21664;-80
2023/03/23 01:59:18;;;;;;;;;;;12.00;85.40;;;;;;5092683;28;19922;-80
2023/03/23 02:01:44;;;;;;;;;;;12.00;85.30;;;;;;5068591;28;19958;-80
2023/03/23 02:04:11;;;;;;;;;;;12.00;85.40;;;;;;5091390;28;20489;-81
2023/03/23 02:06:36;;;;;;;;;;;12.00;85.50;;;;;;5071343;28;19951;-81
2023/03/23 02:09:02;;;;;;;;;;;12.10;85.30;;;;;;5066884;28;19966;-81
2023/03/23 02:11:27;;;;;;;;;;;12.10;85.10;;;;;;5066512;28;20318;-81
2023/03/23 02:13:53;;;;;;;;;;;12.10;84.80;;;;;;5057230;28;19916;-80
2023/03/23 02:16:51;;;;;;;;;;;12.00;84.90;;;;;;5079922;28;19916;-81
2023/03/23 02:19:26;;;;;;;;;;;11.90;84.70;;;;;;5042924;28;19919;-81
2023/03/23 02:22:12;;;;;;;;;;;11.90;83.80;;;;;;5065687;28;19927;-81
2023/03/23 02:24:37;;;;;;;;;;;12.00;83.20;;;;;;5071097;28;19912;-81
2023/03/23 02:27:16;;;;;;;;;;;12.00;83.30;;;;;;5072087;28;20343;-81
2023/03/23 02:29:51;;;;;;;;;;;12.00;83.20;;;;;;5064798;28;19927;-81
2023/03/23 02:32:32;;;;;;;;;;;12.00;83.00;;;;;;5088991;28;19970;-81
2023/03/23 02:35:00;;;;;;;;;;;12.10;83.30;;;;;;5079947;28;20433;-80
2023/03/23 02:37:32;;;;;;;;;;;12.10;83.30;;;;;;5066579;28;20028;-80
2023/03/23 02:40:06;;;;;;;;;;;12.00;83.60;;;;;;5073269;28;19920;-81
2023/03/23 02:42:33;;;;;;;;;;;12.00;83.90;;;;;;5087297;28;19930;-80
2023/03/23 02:45:02;;;;;;;;;;;12.00;84.20;;;;;;5068671;28;20386;-81
2023/03/23 02:47:28;;;;;;;;;;;12.00;84.20;;;;;;5066979;28;19942;-81
2023/03/23 02:49:55;;;;;;;;;;;11.90;84.60;;;;;;5071599;28;19916;-81
2023/03/23 02:52:27;;;;;;;;;;;11.90;85.00;;;;;;5060313;28;19917;-82
2023/03/23 02:54:53;;;;;;;;;;;11.90;84.90;;;;;;5062705;28;19912;-80
2023/03/23 02:57:20;;;;;;;;;;;11.80;85.30;;;;;;5069303;28;20314;-80
2023/03/23 02:59:45;;;;;;;;;;;11.90;85.50;;;;;;5076981;28;20035;-81
2023/03/23 03:02:17;;;;;;;;;;;11.80;85.20;;;;;;5056940;28;20019;-78
2023/03/23 03:04:46;;;;;;;;;;;11.90;85.10;;;;;;5079038;28;19913;-79
2023/03/23 03:07:20;;;;;;;;;;;11.90;85.40;;;;;;5087427;28;20260;-79
2023/03/23 03:09:55;;;;;;;;;;;11.80;85.80;;;;;;5070082;28;19919;-80
2023/03/23 03:12:34;;;;;;;;;;;11.80;85.80;;;;;;5068422;28;19916;-80
2023/03/23 03:15:08;;;;;;;;;;;11.80;85.80;;;;;;5083281;28;20017;-83
2023/03/23 03:17:36;;;;;;;;;;;11.90;85.50;;;;;;5091575;28;19929;-80
2023/03/23 03:20:13;;;;;;;;;;;11.90;85.20;;;;;;5073586;28;19916;-79
2023/03/23 03:22:42;;;;;;;;;;;11.90;85.10;;;;;;5072795;28;19912;-80
2023/03/23 03:25:08;;;;;;;;;;;11.80;85.30;;;;;;5061558;28;19912;-81
2023/03/23 03:27:34;;;;;;;;;;;11.90;85.20;;;;;;5063557;28;19934;-80
2023/03/23 03:30:03;;;;;;;;;;;11.90;84.90;;;;;;5069850;28;20406;-79
2023/03/23 03:32:33;;;;;;;;;;;11.80;84.80;;;;;;5067979;28;19920;-80
2023/03/23 03:35:00;;;;;;;;;;;11.80;85.10;;;;;;5073742;28;19912;-80
2023/03/23 03:37:26;;;;;;;;;;;11.80;84.80;;;;;;5070195;28;19916;-79
2023/03/23 03:39:51;;;;;;;;;;;11.70;85.10;;;;;;5086632;28;19928;-81
2023/03/23 03:42:17;;;;;;;;;;;11.70;85.10;;;;;;5086202;28;19916;-80
2023/03/23 03:44:42;;;;;;;;;;;11.70;85.00;;;;;;5088211;28;20006;-80
2023/03/23 03:47:08;;;;;;;;;;;11.80;84.90;;;;;;5087856;28;19912;-80
2023/03/23 03:49:33;;;;;;;;;;;11.70;85.00;;;;;;5064496;28;19919;-80
2023/03/23 03:51:59;;;;;;;;;;;11.70;84.80;;;;;;5066609;28;20264;-80
2023/03/23 03:54:24;;;;;;;;;;;11.70;84.80;;;;;;5065359;28;19912;-80
2023/03/23 03:56:51;;;;;;;;;;;11.80;84.40;;;;;;5083461;28;19920;-80
2023/03/23 03:59:17;;;;;;;;;;;11.90;84.30;;;;;;5071033;28;19927;-80
2023/03/23 04:01:42;;;;;;;;;;;11.90;83.70;;;;;;5068539;28;20313;-80
2023/03/23 04:04:08;;;;;;;;;;;11.90;83.90;;;;;;5065925;28;20763;-80
2023/03/23 04:06:37;;;;;;;;;;;11.90;83.70;;;;;;5064687;28;19920;-79
2023/03/23 04:09:05;;;;;;;;;;;11.80;83.40;;;;;;5081480;28;19912;-80
2023/03/23 04:11:31;;;;;;;;;;;12.00;83.30;;;;;;5064906;28;20018;-79
2023/03/23 04:13:57;;;;;;;;;;;12.00;83.20;;;;;;5095520;28;19954;-80
2023/03/23 04:16:22;;;;;;;;;;;12.00;82.70;;;;;;5081431;28;19944;-79
2023/03/23 04:18:48;;;;;;;;;;;11.90;82.80;;;;;;5089772;28;19919;-79
2023/03/23 04:21:14;;;;;;;;;;;12.00;82.60;;;;;;5096954;28;19989;-79
2023/03/23 04:23:40;;;;;;;;;;;12.00;82.40;;;;;;5108527;28;19931;-79
2023/03/23 04:26:06;;;;;;;;;;;12.00;82.50;;;;;;5097626;28;19946;-80
2023/03/23 04:28:33;;;;;;;;;;;12.00;82.20;;;;;;5070783;28;19916;-81
2023/03/23 04:31:00;;;;;;;;;;;12.00;82.20;;;;;;5067582;28;19924;-82
2023/03/23 04:33:26;;;;;;;;;;;12.00;82.20;;;;;;5092295;28;19923;-81
2023/03/23 04:35:52;;;;;;;;;;;12.10;82.10;;;;;;5090941;28;19916;-80
2023/03/23 04:38:20;;;;;;;;;;;12.10;82.20;;;;;;5075026;28;19912;-80
2023/03/23 04:40:45;;;;;;;;;;;12.00;82.30;;;;;;5067597;28;19932;-81
2023/03/23 04:43:12;;;;;;;;;;;12.10;81.70;;;;;;5083718;28;19912;-81
2023/03/23 04:45:41;;;;;;;;;;;12.10;81.90;;;;;;5062573;28;19913;-80
2023/03/23 04:48:07;;;;;;;;;;;12.10;81.90;;;;;;5073271;28;19928;-81
2023/03/23 04:50:33;;;;;;;;;;;12.00;82.00;;;;;;5083880;28;20000;-80
2023/03/23 04:53:03;;;;;;;;;;;12.00;82.30;;;;;;5070345;28;19923;-81
2023/03/23 04:55:35;;;;;;;;;;;12.10;81.90;;;;;;5075549;28;20021;-81
2023/03/23 04:58:05;;;;;;;;;;;12.10;81.50;;;;;;5069855;28;19954;-80
2023/03/23 05:00:32;;;;;;;;;;;12.00;81.80;;;;;;5062552;28;19916;-81
2023/03/23 05:02:58;;;;;;;;;;;12.10;81.30;;;;;;5063444;28;19958;-81
2023/03/23 05:05:25;;;;;;;;;;;12.10;81.60;;;;;;5080246;28;20007;-81
2023/03/23 05:07:50;;;;;;;;;;;12.10;81.90;;;;;;5065569;28;19935;-84
2023/03/23 05:10:16;;;;;;;;;;;12.10;81.70;;;;;;5079677;28;20336;-81
2023/03/23 05:12:41;;;;;;;;;;;12.10;81.70;;;;;;5061931;28;19949;-81
2023/03/23 05:15:07;;;;;;;;;;;12.10;81.90;;;;;;5067245;28;20108;-82
2023/03/23 05:17:33;;;;;;;;;;;12.10;81.50;;;;;;5070860;28;19912;-81
2023/03/23 05:19:59;;;;;;;;;;;12.10;81.40;;;;;;5079321;28;19919;-80
2023/03/23 05:22:28;;;;;;;;;;;12.10;81.60;;;;;;5089331;28;19940;-81
2023/03/23 05:24:53;;;;;;;;;;;12.10;81.40;;;;;;5070698;28;20442;-81
2023/03/23 05:27:19;;;;;;;;;;;12.10;81.40;;;;;;5079812;28;19939;-81
2023/03/23 05:29:48;;;;;;;;;;;12.10;81.40;;;;;;5083449;28;19913;-80
2023/03/23 05:32:16;;;;;;;;;;;12.10;81.10;;;;;;5059232;28;20341;-81
2023/03/23 05:34:43;;;;;;;;;;;12.20;80.90;;;;;;5060946;28;19916;-81
2023/03/23 05:37:14;;;;;;;;;;;12.20;81.20;;;;;;5095234;22;20283;-80
2023/03/23 05:39:46;;;;;;;;;;;12.20;81.30;;;;;;5062555;28;19919;-79
2023/03/23 05:42:37;;;;;;;;;;;12.10;81.10;;;;;;5085344;28;20317;-87
2023/03/23 05:45:10;;;;;;;;;;;12.10;80.80;;;;;;5086697;28;19973;-80
2023/03/23 05:47:36;;;;;;;;;;;12.10;80.90;;;;;;5081570;28;19912;-81
2023/03/23 05:50:06;;;;;;;;;;;12.10;81.00;;;;;;5064549;28;19920;-81
2023/03/23 05:52:35;;;;;;;;;;;12.20;80.80;;;;;;5083046;28;20299;-81
2023/03/23 05:55:09;;;;;;;;;;;12.20;80.60;;;;;;5066679;28;19931;-81
2023/03/23 05:57:41;;;;;;;;;;;12.20;80.30;;;;;;5068767;28;19916;-81
2023/03/23 06:00:22;;;;;;;;;;;12.30;80.20;;;;;;5083069;28;20278;-81
2023/03/23 06:02:54;;;;;;;;;;;12.30;80.20;;;;;;5064637;28;19920;-80
2023/03/23 06:05:25;;;;;;;;;;;12.30;80.00;;;;;;5086800;28;19927;-80
2023/03/23 06:07:51;;;;;;;;;;;12.30;79.90;;;;;;5089087;28;19995;-81
2023/03/23 06:10:17;;;;;;;;;;;12.20;80.10;;;;;;5063211;28;19939;-81
2023/03/23 06:12:43;;;;;;;;;;;12.30;80.00;;;;;;5082225;28;20844;-84
2023/03/23 06:15:09;;;;;;;;;;;12.40;79.90;;;;;;5064354;28;19927;-86
2023/03/23 06:17:36;;;;;;;;;;;12.40;79.40;;;;;;5063946;28;19920;-87
2023/03/23 06:20:09;;;;;;;;;;;12.40;79.60;;;;;;5083385;28;19924;-91
2023/03/23 06:22:35;;;;;;;;;;;12.40;79.90;;;;;;5063269;28;20359;-86
2023/03/23 06:25:12;;;;;;;;;;;12.40;79.40;;;;;;5065979;28;19927;-88
2023/03/23 06:27:38;;;;;;;;;;;12.40;79.70;;;;;;5069097;28;20413;-87
2023/03/23 06:30:04;;;;;;;;;;;12.50;79.40;;;;;;5072153;28;19912;-89
2023/03/23 06:32:33;;;;;;;;;;;12.40;79.40;;;;;;5063166;28;20409;-87
2023/03/23 06:34:59;;;;;;;;;;;12.40;79.80;;;;;;5064757;28;19916;-79
2023/03/23 06:37:24;;;;;;;;;;;12.40;79.80;;;;;;5088336;28;19988;-80
2023/03/23 06:39:51;;;;;;;;;;;12.40;79.50;;;;;;5070469;28;20294;-83
2023/03/23 06:42:17;;;;;;;;;;;12.40;79.70;;;;;;5062226;28;19923;-79
2023/03/23 06:44:43;;;;;;;;;;;12.50;79.90;;;;;;5083851;28;19927;-81
2023/03/23 06:47:09;;;;;;;;;;;12.50;79.60;;;;;;5086875;28;19912;-79
2023/03/23 06:49:34;;;;;;;;;;;12.50;79.10;;;;;;5070085;28;19923;-79
2023/03/23 06:52:01;;;;;;;;;;;12.60;78.90;;;;;;5079945;28;20022;-81
2023/03/23 06:54:27;;;;;;;;;;;12.60;78.60;;;;;;5063146;28;19957;-78
2023/03/23 06:56:53;;;;;;;;;;;12.60;79.10;;;;;;5082081;28;19923;-78
2023/03/23 06:59:19;;;;;;;;;;;12.60;78.10;;;;;;5077593;28;19912;-79
2023/03/23 07:01:46;;;;;;;;;;;12.70;78.20;;;;;;5078459;28;19923;-81
2023/03/23 07:04:12;;;;;;;;;;;12.60;78.20;;;;;;5061442;28;19923;-77
2023/03/23 07:06:37;;;;;;;;;;;12.70;78.20;;;;;;5079424;28;19916;-80
2023/03/23 07:09:03;;;;;;;;;;;12.80;78.10;;;;;;5061686;28;19919;-79
2023/03/23 07:11:29;;;;;;;;;;;12.80;77.90;;;;;;5059227;28;19912;-80
2023/03/23 07:13:55;;;;;;;;;;;12.80;78.00;;;;;;5063973;28;20475;-80
2023/03/23 07:16:20;;;;;;;;;;;12.80;78.00;;;;;;5058172;28;19938;-79
2023/03/23 07:18:46;;;;;;;;;;;12.80;77.80;;;;;;5058058;28;19982;-78
2023/03/23 07:21:11;;;;;;;;;;;12.90;77.30;;;;;;5078561;28;20007;-78
2023/03/23 07:23:37;;;;;;;;;;;12.80;77.30;;;;;;5088079;28;20341;-79
2023/03/23 07:26:03;;;;;;;;;;;12.90;77.30;;;;;;5083382;28;19966;-78
2023/03/23 07:28:28;;;;;;;;;;;12.90;76.90;;;;;;5070831;28;19913;-79
2023/03/23 07:30:54;;;;;;;;;;;12.90;76.90;;;;;;5072172;28;19961;-80
2023/03/23 07:33:19;;;;;;;;;;;12.90;77.30;;;;;;5065786;28;20363;-77
2023/03/23 07:35:45;;;;;;;;;;;12.90;76.90;;;;;;5068320;28;19973;-78
2023/03/23 07:38:11;;;;;;;;;;;12.90;76.70;;;;;;5066875;28;19920;-80
2023/03/23 07:40:37;;;;;;;;;;;13.00;76.60;;;;;;5081913;28;19912;-78
2023/03/23 07:43:03;;;;;;;;;;;13.00;76.50;;;;;;5081319;28;19919;-78
2023/03/23 07:45:29;;;;;;;;;;;13.00;75.80;;;;;;5060408;28;19997;-81
2023/03/23 07:47:55;;;;;;;;;;;13.10;75.70;;;;;;5069031;28;19923;-78
2023/03/23 07:50:24;;;;;;;;;;;13.10;75.70;;;;;;5062238;28;19921;-78
2023/03/23 07:52:50;;;;;;;;;;;13.10;75.70;;;;;;5082074;28;19931;-77
2023/03/23 07:55:18;;;;;;;;;;;13.00;75.40;;;;;;5087260;28;20448;-78
2023/03/23 07:57:44;;;;;;;;;;;13.10;75.00;;;;;;5067495;28;19968;-78
2023/03/23 08:00:13;;;;;;;;;;;13.10;75.20;;;;;;5074232;28;19955;-78
2023/03/23 08:02:39;;;;;;;;;;;13.10;75.10;;;;;;5090456;28;19919;-79
2023/03/23 08:05:04;;;;;;;;;;;13.10;74.90;;;;;;5063608;28;19916;-79
2023/03/23 08:07:30;;;;;;;;;;;13.20;75.40;;;;;;5080339;28;20462;-86
2023/03/23 08:09:56;;;;;;;;;;;13.10;74.90;;;;;;5070895;28;19924;-81
2023/03/23 08:12:21;;;;;;;;;;;13.10;74.60;;;;;;5064106;28;19920;-80
2023/03/23 08:14:48;;;;;;;;;;;13.20;74.40;;;;;;5062856;28;19946;-80
2023/03/23 08:17:14;;;;;;;;;;;13.30;74.50;;;;;;5083387;28;19916;-80
2023/03/23 08:19:39;;;;;;;;;;;13.20;74.30;;;;;;5069998;28;20017;-81
2023/03/23 08:22:05;;;;;;;;;;;13.20;74.60;;;;;;5068049;28;19952;-80
2023/03/23 08:24:32;;;;;;;;;;;13.30;74.10;;;;;;5074414;28;19927;-80
2023/03/23 08:26:58;;;;;;;;;;;13.30;74.10;;;;;;5067946;28;19920;-80
2023/03/23 08:29:24;;;;;;;;;;;13.20;73.50;;;;;;5065197;28;19912;-81
2023/03/23 08:31:50;;;;;;;;;;;13.30;73.20;;;;;;5064627;28;19920;-79
2023/03/23 08:34:15;;;;;;;;;;;13.30;73.50;;;;;;5080507;28;19978;-81
2023/03/23 08:36:43;;;;;;;;;;;13.30;73.50;;;;;;5059572;28;19958;-83
2023/03/23 08:39:14;;;;;;;;;;;13.30;73.70;;;;;;5081447;28;20050;-90
2023/03/23 08:41:40;;;;;;;;;;;13.40;73.00;;;;;;5084932;28;19976;-83
2023/03/23 08:44:09;;;;;;;;;;;13.50;73.10;;;;;;5067783;28;19967;-84
2023/03/23 08:46:34;;;;;;;;;;;13.50;73.00;;;;;;5063277;28;19926;-82
2023/03/23 08:49:00;;;;;;;;;;;13.50;71.90;;;;;;5093886;28;19983;-81
2023/03/23 08:51:26;;;;;;;;;;;13.60;72.10;;;;;;5084139;28;19904;-79
2023/03/23 08:53:52;;;;;;;;;;;13.60;71.70;;;;;;5099153;28;19943;-80
2023/03/23 08:56:17;;;;;;;;;;;13.60;71.90;;;;;;5079120;28;19920;-81
2023/03/23 08:58:43;;;;;;;;;;;13.60;71.40;;;;;;5089234;28;19965;-82
2023/03/23 09:01:10;;;;;;;;;;;13.70;71.10;;;;;;5025865;22;1904178;-83
2023/03/23 09:03:44;;;;;;;;;;;13.60;71.60;;;;;;5050296;28;19947;-84
2023/03/23 09:06:12;;;;;;;;;;;13.60;71.20;;;;;;5065320;28;19913;-86
2023/03/23 09:08:38;;;;;;;;;;;13.80;70.30;;;;;;5038461;28;19913;-84
2023/03/23 09:11:30;;;;;;;;;;;14.00;70.00;;;;;;5063919;28;19928;-84
2023/03/23 09:14:28;;;;;;;;;;;14.00;70.10;;;;;;5019731;28;20300;-81
2023/03/23 09:17:05;;;;;;;;;;;14.00;69.90;;;;;;5046619;28;19917;-82
2023/03/23 09:19:33;;;;;;;;;;;14.00;70.00;;;;;;5046710;28;19909;-82
2023/03/23 09:22:04;;;;;;;;;;;14.00;70.30;;;;;;5035881;28;19916;-85
2023/03/23 09:24:41;;;;;;;;;;;14.00;69.60;;;;;;5029396;28;20074;-84
2023/03/23 09:27:07;;;;;;;;;;;14.00;69.70;;;;;;5046614;28;20711;-82
2023/03/23 09:29:32;;;;;;;;;;;14.00;69.60;;;;;;5057962;28;19913;-82
2023/03/23 09:31:58;;;;;;;;;;;13.90;69.40;;;;;;5047158;28;19913;-82
2023/03/23 09:34:23;;;;;;;;;;;13.80;70.00;;;;;;5042573;28;20007;-81
2023/03/23 09:36:49;;;;;;;;;;;13.80;69.70;;;;;;5045535;28;19955;-82
2023/03/23 09:39:16;;;;;;;;;;;13.80;70.20;;;;;;5032200;28;19928;-83
2023/03/23 09:42:00;;;;;;;;;;;13.70;70.30;;;;;;5033015;28;19913;-81
2023/03/23 09:44:42;;;;;;;;;;;13.80;70.10;;;;;;5051529;28;19917;-83
2023/03/23 09:47:18;;;;;;;;;;;13.80;69.60;;;;;;5053069;28;19932;-84
2023/03/23 09:49:53;;;;;;;;;;;13.90;69.80;;;;;;5036027;28;19955;-81
2023/03/23 09:52:19;;;;;;;;;;;14.00;69.80;;;;;;5052275;28;19919;-82
2023/03/23 09:54:45;;;;;;;;;;;14.00;69.60;;;;;;5033502;28;19956;-83
2023/03/23 09:57:29;;;;;;;;;;;14.00;69.40;;;;;;5032884;28;19916;-82
2023/03/23 09:59:58;;;;;;;;;;;14.00;69.70;;;;;;5027190;28;20392;-82
2023/03/23 10:02:36;;;;;;;;;;;14.00;69.10;;;;;;5054092;28;19916;-81
2023/03/23 10:05:21;;;;;;;;;;;14.00;69.20;;;;;;5034733;28;20434;-82
2023/03/23 10:07:47;;;;;;;;;;;14.00;69.00;;;;;;5040336;28;19908;-83
2023/03/23 10:10:13;;;;;;;;;;;14.00;69.60;;;;;;5033561;28;19919;-81
2023/03/23 10:12:41;;;;;;;;;;;13.90;69.50;;;;;;5052212;28;19947;-82
2023/03/23 10:15:10;;;;;;;;;;;14.00;70.40;;;;;;5049939;28;19920;-82
2023/03/23 10:17:55;;;;;;;;;;;13.90;73.20;;;;;;5073167;28;19912;-82
2023/03/23 10:20:23;;;;;;;;;;;13.80;74.70;;;;;;5049824;28;19952;-84
2023/03/23 10:22:55;;;;;;;;;;;13.60;74.90;;;;;;5039297;28;19977;-86
2023/03/23 10:25:23;;;;;;;;;;;13.10;75.00;;;;;;5048781;28;20371;-85
2023/03/23 10:27:57;;;;;;;;;;;12.50;78.00;;;;;;5052249;28;20315;-85
2023/03/23 10:30:34;;;;;;;;;;;12.00;80.50;;;;;;5054009;28;19917;-87
2023/03/23 10:33:06;;;;;;;;;;;11.60;82.20;;;;;;5054308;28;20352;-84
2023/03/23 10:35:35;;;;;;;;;;;11.40;83.10;;;;;;5054502;28;19913;-85
2023/03/23 10:38:03;;;;;;;;;;;11.30;84.70;;;;;;5057221;28;20234;-86
2023/03/23 10:40:34;;;;;;;;;;;11.20;84.70;;;;;;5041703;28;19958;-86
2023/03/23 10:43:01;;;;;;;;;;;11.10;84.60;;;;;;5048340;28;19956;-87
2023/03/23 10:45:35;;;;;;;;;;;11.10;85.40;;;;;;5045951;28;20007;-86
2023/03/23 10:48:09;;;;;;;;;;;11.10;85.50;;;;;;5086290;28;19909;-85
2023/03/23 10:50:37;;;;;;;;;;;11.20;86.50;;;;;;5054353;28;19917;-83
2023/03/23 10:53:10;;;;;;;;;;;11.30;86.90;;;;;;5053637;28;19912;-84
2023/03/23 10:55:38;;;;;;;;;;;11.30;85.10;;;;;;5051415;28;20391;-85
2023/03/23 10:58:04;;;;;;;;;;;11.20;85.20;;;;;;5050976;28;19912;-84
2023/03/23 11:00:30;;;;;;;;;;;11.30;84.90;;;;;;5062563;28;19948;-84
2023/03/23 11:03:05;;;;;;;;;;;11.50;85.60;;;;;;5075379;28;19928;-85
2023/03/23 11:05:42;;;;;;;;;;;11.60;85.00;;;;;;5073722;28;19924;-84
2023/03/23 11:08:14;;;;;;;;;;;11.60;84.90;;;;;;5075460;28;19920;-84
2023/03/23 11:10:54;;;;;;;;;;;11.50;84.30;;;;;;5044908;28;20422;-86
2023/03/23 11:13:21;;;;;;;;;;;11.60;84.50;;;;;;5036879;28;19917;-85
2023/03/23 11:15:47;;;;;;;;;;;11.70;85.00;;;;;;5050245;28;19917;-85
2023/03/23 11:18:18;;;;;;;;;;;11.80;85.10;;;;;;5049714;28;20391;-85
2023/03/23 11:20:46;;;;;;;;;;;12.00;85.20;;;;;;5048525;28;19935;-84
2023/03/23 11:23:18;;;;;;;;;;;11.90;85.60;;;;;;5061101;28;19919;-84
2023/03/23 11:25:51;;;;;;;;;;;11.80;85.40;;;;;;5065292;28;19932;-86
2023/03/23 11:28:19;;;;;;;;;;;11.80;85.50;;;;;;5053906;28;19912;-86
2023/03/23 11:30:45;;;;;;;;;;;11.70;85.80;;;;;;5024319;28;19916;-84
2023/03/23 11:33:12;;;;;;;;;;;11.80;86.60;;;;;;5044076;28;19917;-87
2023/03/23 11:35:37;;;;;;;;;;;11.70;86.70;;;;;;5050441;28;20012;-86
2023/03/23 11:38:06;;;;;;;;;;;11.60;86.10;;;;;;5021987;28;20059;-85
2023/03/23 11:40:31;;;;;;;;;;;11.60;86.50;;;;;;5056967;28;19917;-87
2023/03/23 11:42:59;;;;;;;;;;;11.50;86.60;;;;;;5045166;28;19969;-86
2023/03/23 11:45:33;;;;;;;;;;;11.60;86.90;;;;;;5022144;28;19943;-82
2023/03/23 11:48:09;;;;;;;;;;;11.60;86.70;;;;;;5031396;28;20463;-87
2023/03/23 11:50:41;;;;;;;;;;;11.60;86.90;;;;;;5018764;28;20308;-88
2023/03/23 11:53:15;;;;;;;;;;;11.60;86.20;;;;;;5027147;28;20015;-86
2023/03/23 11:55:44;;;;;;;;;;;11.50;86.20;;;;;;5022946;28;19999;-87
2023/03/23 11:58:12;;;;;;;;;;;11.50;86.60;;;;;;5025007;28;19966;-87
2023/03/23 12:00:43;;;;;;;;;;;11.50;87.00;;;;;;5024019;28;19917;-86
2023/03/23 12:03:12;;;;;;;;;;;11.50;87.00;;;;;;5021140;28;20404;-86
2023/03/23 12:05:57;;;;;;;;;;;11.50;87.40;;;;;;5024477;28;20435;-85
2023/03/23 12:08:23;;;;;;;;;;;11.60;87.30;;;;;;5024864;28;19955;-85
2023/03/23 12:10:58;;;;;;;;;;;11.60;87.60;;;;;;5026397;28;20321;-82
2023/03/23 12:13:26;;;;;;;;;;;11.60;87.20;;;;;;5043926;28;19921;-82
2023/03/23 12:16:08;;;;;;;;;;;11.60;87.80;;;;;;5047427;28;20356;-83
2023/03/23 12:18:40;;;;;;;;;;;11.90;87.70;;;;;;5046251;28;19958;-85
2023/03/23 12:21:32;;;;;;;;;;;12.00;87.10;;;;;;5020561;28;20304;-83
2023/03/23 12:23:57;;;;;;;;;;;12.00;86.50;;;;;;5028198;28;20410;-83
2023/03/23 12:26:31;;;;;;;;;;;12.00;87.10;;;;;;5043716;28;19921;-83
2023/03/23 12:29:02;;;;;;;;;;;12.10;86.80;;;;;;5047091;28;19917;-84
2023/03/23 12:31:28;;;;;;;;;;;12.20;86.20;;;;;;5022843;28;19917;-83
2023/03/23 12:33:59;;;;;;;;;;;12.10;86.40;;;;;;5046717;28;19943;-81
2023/03/23 12:36:40;;;;;;;;;;;12.00;86.20;;;;;;5024175;28;19920;-85
2023/03/23 12:39:09;;;;;;;;;;;11.80;87.00;;;;;;5044531;28;19928;-83
2023/03/23 12:41:49;;;;;;;;;;;11.80;87.00;;;;;;5042419;28;19920;-82
2023/03/23 12:44:16;;;;;;;;;;;11.80;87.00;;;;;;5035000;28;19913;-82
2023/03/23 12:46:45;;;;;;;;;;;11.60;87.00;;;;;;5032216;28;19920;-80
2023/03/23 12:49:15;;;;;;;;;;;11.60;87.80;;;;;;5027300;28;19924;-81
2023/03/23 12:51:48;;;;;;;;;;;11.70;88.10;;;;;;5037777;28;19928;-78
2023/03/23 12:54:13;;;;;;;;;;;11.80;88.10;;;;;;5047058;28;19924;-80
2023/03/23 12:56:45;;;;;;;;;;;11.80;88.20;;;;;;5031369;28;19913;-80
2023/03/23 12:59:26;;;;;;;;;;;11.90;88.40;;;;;;5045839;28;22355;-79
2023/03/23 13:01:57;;;;;;;;;;;11.90;88.20;;;;;;5047364;28;19924;-79
2023/03/23 13:04:31;;;;;;;;;;;12.00;88.20;;;;;;5047616;28;20398;-79
2023/03/23 13:06:57;;;;;;;;;;;12.00;88.50;;;;;;5051931;28;19923;-79
2023/03/23 13:09:48;;;;;;;;;;;12.20;88.20;;;;;;5060918;28;20256;-80
2023/03/23 13:12:14;;;;;;;;;;;12.20;88.00;;;;;;5032671;28;19917;-80
2023/03/23 13:14:58;;;;;;;;;;;12.20;87.90;;;;;;5048983;28;20433;-81
2023/03/23 13:17:36;;;;;;;;;;;12.20;88.20;;;;;;5048964;28;19917;-81
2023/03/23 13:20:17;;;;;;;;;;;12.10;88.20;;;;;;5049300;28;19920;-81
2023/03/23 13:22:59;;;;;;;;;;;12.10;88.40;;;;;;5049927;28;19978;-81
2023/03/23 13:25:45;;;;;;;;;;;12.30;88.50;;;;;;5030242;28;19968;-82
2023/03/23 13:28:22;;;;;;;;;;;12.50;88.00;;;;;;5036900;28;19913;-82
2023/03/23 13:30:58;;;;;;;;;;;12.40;87.60;;;;;;5035798;28;19946;-82
2023/03/23 13:33:24;;;;;;;;;;;12.40;87.30;;;;;;5023310;28;19917;-81
2023/03/23 13:35:51;;;;;;;;;;;12.20;87.40;;;;;;5043366;28;20628;-81
2023/03/23 13:38:21;;;;;;;;;;;12.20;87.70;;;;;;5053449;28;19917;-81
2023/03/23 13:40:47;;;;;;;;;;;12.20;87.70;;;;;;5047267;28;19964;-81
2023/03/23 13:43:12;;;;;;;;;;;12.30;87.10;;;;;;5044145;28;19917;-81
2023/03/23 13:45:46;;;;;;;;;;;12.50;86.90;;;;;;5047311;28;19912;-83
2023/03/23 13:48:11;;;;;;;;;;;12.50;87.30;;;;;;5047467;28;20435;-83
2023/03/23 13:50:44;;;;;;;;;;;12.60;86.60;;;;;;5047589;28;19927;-83
2023/03/23 13:53:15;;;;;;;;;;;12.70;86.40;;;;;;5024359;28;20288;-87
2023/03/23 13:55:42;;;;;;;;;;;12.80;86.90;;;;;;5023257;28;20379;-82
2023/03/23 13:58:07;;;;;;;;;;;13.00;86.60;;;;;;5026347;28;19917;-85
2023/03/23 14:00:33;;;;;;;;;;;13.00;85.70;;;;;;5041418;28;19919;-86
2023/03/23 14:03:14;;;;;;;;;;;13.00;85.30;;;;;;5015238;28;19929;-83
2023/03/23 14:05:41;;;;;;;;;;;12.90;85.50;;;;;;5013570;28;19917;-83
2023/03/23 14:08:09;;;;;;;;;;;13.00;85.60;;;;;;5020077;28;20016;-84
2023/03/23 14:10:37;;;;;;;;;;;13.00;85.70;;;;;;5042061;28;19967;-84
2023/03/23 14:13:04;;;;;;;;;;;12.90;85.90;;;;;;5042273;28;19923;-85
2023/03/23 14:15:31;;;;;;;;;;;12.90;86.00;;;;;;5019255;28;19916;-84
2023/03/23 14:17:57;;;;;;;;;;;12.90;85.90;;;;;;5020708;28;20372;-86
2023/03/23 14:20:29;;;;;;;;;;;12.90;86.20;;;;;;5038655;28;19971;-84
2023/03/23 14:22:56;;;;;;;;;;;13.10;86.00;;;;;;5039533;28;19940;-85
2023/03/23 14:25:23;;;;;;;;;;;13.10;86.00;;;;;;5023295;28;20020;-85
2023/03/23 14:27:50;;;;;;;;;;;13.20;85.70;;;;;;5024863;28;19916;-85